Time;durP1;ratioP1;P1;durP2;ratioP2;P2;SDS_P1;SDS_P2;PMS_P1;PMS_P2;Temp;Humidity;BMP_temperature;BMP_pressure;BME280_temperature;BME280_humidity;BME280_pressure;Samples;Min_cycle;Max_cycle;Signal;HPM_P1;HPM_P2
2021/12/21 06:00:06;;;;;;;7.70;6.90;;;1.70;97.20;;;;;;1701378;29;20230;-77
2021/12/21 06:00:57;;;;;;;10.00;7.40;;;1.60;97.20;;;;;;1701389;29;20208;-77
2021/12/21 06:01:48;;;;;;;9.40;7.33;;;1.70;97.20;;;;;;1701441;29;20291;-77
2021/12/21 06:02:39;;;;;;;9.80;6.95;;;1.60;97.20;;;;;;1701432;29;20210;-77
2021/12/21 06:03:31;;;;;;;12.40;7.97;;;1.70;97.20;;;;;;1701470;29;20205;-77
2021/12/21 06:04:23;;;;;;;14.18;7.90;;;1.60;97.20;;;;;;1701471;29;20823;-77
2021/12/21 06:05:15;;;;;;;10.63;8.30;;;1.70;97.20;;;;;;1701616;29;20779;-77
2021/12/21 06:06:12;;;;;;;10.48;7.70;;;1.70;97.20;;;;;;1701376;29;20263;-76
2021/12/21 06:07:04;;;;;;;9.25;8.23;;;1.70;97.20;;;;;;1701445;29;20203;-77
2021/12/21 06:07:56;;;;;;;13.35;9.82;;;1.70;97.20;;;;;;1701753;29;20211;-79
2021/12/21 06:08:49;;;;;;;12.85;10.07;;;1.70;97.20;;;;;;1701505;29;20595;-79
2021/12/21 06:09:42;;;;;;;12.20;10.73;;;1.60;97.20;;;;;;1701813;29;20226;-76
2021/12/21 06:10:37;;;;;;;11.52;9.35;;;1.70;97.20;;;;;;1701659;29;20195;-79
2021/12/21 06:11:28;;;;;;;15.32;10.65;;;1.60;97.20;;;;;;1708016;28;20202;-78
2021/12/21 06:12:34;;;;;;;13.60;9.63;;;1.70;97.20;;;;;;1708742;29;20198;-79
2021/12/21 06:14:57;;;;;;;9.85;8.85;;;1.70;97.20;;;;;;1708581;28;20233;-79
2021/12/21 06:16:07;;;;;;;11.88;10.13;;;1.60;97.20;;;;;;1708657;28;20234;-79
2021/12/21 06:22:52;;;;;;;11.73;8.20;;;1.50;97.20;;;;;;1706995;29;20545;-78
2021/12/21 06:26:14;;;;;;;12.88;8.80;;;1.40;97.20;;;;;;1681692;29;20197;-78
2021/12/21 06:27:06;;;;;;;9.13;7.90;;;1.40;97.20;;;;;;1682770;29;20864;-78
2021/12/21 06:27:58;;;;;;;11.60;8.80;;;1.40;97.20;;;;;;1704423;28;20257;-78
2021/12/21 06:28:49;;;;;;;12.70;8.13;;;1.40;97.20;;;;;;1708009;28;20262;-78
2021/12/21 06:29:42;;;;;;;13.20;7.97;;;1.30;97.20;;;;;;1708798;29;20206;-78
2021/12/21 06:30:34;;;;;;;9.93;7.75;;;1.30;97.20;;;;;;1708368;29;20268;-78
2021/12/21 06:31:27;;;;;;;11.65;8.35;;;1.30;97.20;;;;;;1708678;29;20195;-79
2021/12/21 06:32:19;;;;;;;9.70;8.20;;;1.30;97.20;;;;;;1708423;29;20234;-78
2021/12/21 06:33:11;;;;;;;9.27;7.85;;;1.30;97.20;;;;;;1707969;28;20287;-77
2021/12/21 06:34:03;;;;;;;11.02;8.35;;;1.40;97.20;;;;;;1707968;29;20210;-77
2021/12/21 06:34:55;;;;;;;9.02;7.85;;;1.40;97.20;;;;;;1707669;28;20221;-77
2021/12/21 06:35:46;;;;;;;10.25;7.60;;;1.40;97.20;;;;;;1707667;28;20234;-77
2021/12/21 06:36:38;;;;;;;11.07;7.07;;;1.40;97.20;;;;;;1708159;28;20254;-77
2021/12/21 06:37:29;;;;;;;11.50;7.50;;;1.40;97.20;;;;;;1707894;28;20213;-77
2021/12/21 06:38:22;;;;;;;9.27;7.03;;;1.40;97.20;;;;;;1707917;29;20281;-77
2021/12/21 06:39:13;;;;;;;11.18;7.72;;;1.40;97.20;;;;;;1706874;28;20210;-76
2021/12/21 06:40:06;;;;;;;12.10;7.32;;;1.40;97.20;;;;;;1707013;29;20294;-77
2021/12/21 06:40:57;;;;;;;9.15;6.60;;;1.40;97.20;;;;;;1707072;29;20242;-75
2021/12/21 06:41:49;;;;;;;8.02;7.20;;;1.40;97.20;;;;;;1707385;28;20670;-76
2021/12/21 06:42:41;;;;;;;10.65;8.10;;;1.40;97.20;;;;;;1707441;29;20211;-76
2021/12/21 06:43:33;;;;;;;10.80;7.43;;;1.30;97.20;;;;;;1707409;29;20206;-76
2021/12/21 06:44:24;;;;;;;8.75;6.65;;;1.40;97.20;;;;;;1707081;28;20374;-76
2021/12/21 06:45:27;;;;;;;8.77;7.97;;;1.30;97.20;;;;;;1707131;29;20654;-75
2021/12/21 06:46:41;;;;;;;8.70;7.70;;;1.30;97.20;;;;;;1707403;29;20199;-76
2021/12/21 06:51:19;;;;;;;9.80;8.18;;;1.40;97.20;;;;;;1690012;29;20696;-77
2021/12/21 06:52:12;;;;;;;9.18;7.88;;;1.40;97.20;;;;;;1707387;29;20210;-77
2021/12/21 06:53:04;;;;;;;8.98;8.07;;;1.40;97.20;;;;;;1707436;28;20237;-76
2021/12/21 06:53:57;;;;;;;8.98;7.90;;;1.40;97.20;;;;;;1707711;29;20500;-76
2021/12/21 06:54:48;;;;;;;10.48;8.70;;;1.40;97.20;;;;;;1707520;28;20666;-76
2021/12/21 06:55:39;;;;;;;10.27;8.20;;;1.40;97.20;;;;;;1707561;29;20669;-77
2021/12/21 06:56:31;;;;;;;11.63;8.00;;;1.40;97.20;;;;;;1706970;28;20658;-77
2021/12/21 06:57:22;;;;;;;12.55;8.43;;;1.40;97.20;;;;;;1707735;29;20693;-77
2021/12/21 06:58:13;;;;;;;13.77;8.57;;;1.40;97.20;;;;;;1707658;29;20585;-76
2021/12/21 06:59:04;;;;;;;11.73;9.52;;;1.40;97.20;;;;;;1707499;29;20707;-76
2021/12/21 06:59:56;;;;;;;13.47;8.63;;;1.50;97.20;;;;;;1707749;28;20619;-77
2021/12/21 07:00:49;;;;;;;11.85;9.05;;;1.40;97.20;;;;;;1707668;29;20509;-76
2021/12/21 07:01:41;;;;;;;13.40;9.77;;;1.40;97.20;;;;;;1707853;29;20205;-77
2021/12/21 07:02:34;;;;;;;12.82;9.65;;;1.40;97.20;;;;;;1707976;29;20255;-77
2021/12/21 07:03:26;;;;;;;9.10;8.20;;;1.50;97.20;;;;;;1707610;28;20203;-77
2021/12/21 07:04:18;;;;;;;12.13;8.90;;;1.40;97.20;;;;;;1707619;28;20210;-77
2021/12/21 07:05:11;;;;;;;10.60;9.40;;;1.40;97.20;;;;;;1707576;29;20203;-77
2021/12/21 07:06:05;;;;;;;11.93;9.80;;;1.40;97.20;;;;;;1707726;28;20677;-77
2021/12/21 07:06:58;;;;;;;14.30;8.70;;;1.40;97.20;;;;;;1707336;29;20254;-77
2021/12/21 07:07:49;;;;;;;12.10;9.73;;;1.40;97.20;;;;;;1707596;29;20268;-77
2021/12/21 07:08:47;;;;;;;13.32;9.38;;;1.40;97.20;;;;;;1707356;29;20202;-75
2021/12/21 07:09:42;;;;;;;12.63;8.57;;;1.40;97.20;;;;;;1707774;29;20548;-77
2021/12/21 07:10:34;;;;;;;10.68;8.25;;;1.40;97.20;;;;;;1707531;29;20203;-77
2021/12/21 07:11:30;;;;;;;11.50;8.13;;;1.40;97.20;;;;;;1707748;29;20350;-77
2021/12/21 07:17:47;;;;;;;10.20;8.25;;;1.40;97.20;;;;;;1707850;29;20657;-77
2021/12/21 07:18:29;;;;;;;14.25;9.30;;;1.40;97.20;;;;;;1707612;29;20217;-77
2021/12/21 07:19:19;;;;;;;11.60;9.35;;;1.40;97.20;;;;;;1707367;29;20207;-77
2021/12/21 07:20:11;;;;;;;12.60;10.30;;;1.40;97.20;;;;;;1707519;29;20696;-75
2021/12/21 07:21:03;;;;;;;12.48;10.13;;;1.40;97.20;;;;;;1707716;29;20753;-77
2021/12/21 07:21:55;;;;;;;13.30;9.73;;;1.50;97.20;;;;;;1707605;28;20206;-77
2021/12/21 07:22:45;;;;;;;12.85;8.70;;;1.50;97.20;;;;;;1707598;28;20688;-76
2021/12/21 07:23:37;;;;;;;19.23;9.47;;;1.40;97.20;;;;;;1707680;29;20565;-77
2021/12/21 07:24:28;;;;;;;14.73;9.35;;;1.40;97.20;;;;;;1707468;28;20445;-75
2021/12/21 07:25:20;;;;;;;10.03;8.87;;;1.40;97.20;;;;;;1707563;29;20285;-76
2021/12/21 07:26:12;;;;;;;11.63;8.75;;;1.40;97.20;;;;;;1707613;29;20213;-76
2021/12/21 07:27:03;;;;;;;10.95;8.40;;;1.40;97.20;;;;;;1707380;29;20195;-76
2021/12/21 07:27:55;;;;;;;10.10;8.45;;;1.40;97.20;;;;;;1707523;28;20429;-76
2021/12/21 07:28:46;;;;;;;12.50;9.07;;;1.40;97.20;;;;;;1707250;29;20203;-76
2021/12/21 07:29:38;;;;;;;9.93;8.60;;;1.40;97.20;;;;;;1707554;29;20213;-77
2021/12/21 07:30:29;;;;;;;12.07;8.85;;;1.40;97.20;;;;;;1707521;29;20257;-76
2021/12/21 07:31:21;;;;;;;9.60;8.40;;;1.40;97.20;;;;;;1707580;28;20194;-76
2021/12/21 07:32:12;;;;;;;11.55;8.35;;;1.40;97.20;;;;;;1707649;29;20198;-76
2021/12/21 07:33:04;;;;;;;11.70;8.50;;;1.40;97.20;;;;;;1707558;29;20211;-76
2021/12/21 07:33:58;;;;;;;9.65;8.65;;;1.40;97.20;;;;;;1707614;29;20261;-76
2021/12/21 07:34:49;;;;;;;11.80;8.32;;;1.40;97.20;;;;;;1707401;28;20227;-76
2021/12/21 07:35:40;;;;;;;9.13;7.82;;;1.40;97.20;;;;;;1707652;28;20495;-76
2021/12/21 07:36:34;;;;;;;9.37;8.43;;;1.40;97.20;;;;;;1707225;29;20205;-76
2021/12/21 07:37:25;;;;;;;11.00;8.73;;;1.40;97.20;;;;;;1707642;29;20465;-76
2021/12/21 07:38:17;;;;;;;9.17;8.20;;;1.40;97.20;;;;;;1707389;29;20198;-76
2021/12/21 07:39:08;;;;;;;9.38;8.20;;;1.40;97.20;;;;;;1707221;29;20458;-76
2021/12/21 07:40:00;;;;;;;11.30;8.18;;;1.50;97.20;;;;;;1707335;29;20199;-76
2021/12/21 07:40:51;;;;;;;10.88;7.95;;;1.50;97.20;;;;;;1707471;29;20703;-77
2021/12/21 07:41:43;;;;;;;9.57;8.30;;;1.50;97.20;;;;;;1707502;29;20669;-76
2021/12/21 07:42:33;;;;;;;9.30;8.30;;;1.50;97.20;;;;;;1707580;29;20233;-76
2021/12/21 07:43:25;;;;;;;13.00;9.30;;;1.50;97.20;;;;;;1707462;29;20202;-76
2021/12/21 07:44:16;;;;;;;13.27;8.88;;;1.40;97.20;;;;;;1707209;28;21009;-77
2021/12/21 07:45:09;;;;;;;11.43;10.17;;;1.40;97.20;;;;;;1707163;29;20258;-77
2021/12/21 07:46:00;;;;;;;11.15;9.07;;;1.40;97.20;;;;;;1707444;29;20209;-76
2021/12/21 07:46:52;;;;;;;9.85;8.55;;;1.40;97.20;;;;;;1707396;28;20281;-76
2021/12/21 07:47:43;;;;;;;10.88;8.68;;;1.40;97.20;;;;;;1707628;29;20199;-77
2021/12/21 07:48:37;;;;;;;12.13;9.10;;;1.40;97.20;;;;;;1707478;28;20257;-76
2021/12/21 07:49:30;;;;;;;13.80;8.90;;;1.40;97.20;;;;;;1707509;28;20210;-77
2021/12/21 07:50:21;;;;;;;11.00;8.68;;;1.40;97.20;;;;;;1707476;29;20206;-77
2021/12/21 07:51:13;;;;;;;11.07;8.70;;;1.40;97.20;;;;;;1707424;28;20205;-76
2021/12/21 07:52:07;;;;;;;12.40;9.32;;;1.40;97.20;;;;;;1707442;29;20453;-76
2021/12/21 07:53:01;;;;;;;12.38;9.02;;;1.40;97.20;;;;;;1707346;28;20601;-76
2021/12/21 07:53:52;;;;;;;12.32;8.73;;;1.40;97.20;;;;;;1707395;29;20245;-76
2021/12/21 07:54:44;;;;;;;9.88;8.35;;;1.40;97.20;;;;;;1707325;28;20219;-76
2021/12/21 07:55:35;;;;;;;11.02;8.90;;;1.30;97.20;;;;;;1707215;29;20269;-76
2021/12/21 07:56:27;;;;;;;11.67;9.13;;;1.30;97.20;;;;;;1707477;29;20225;-76
2021/12/21 07:57:17;;;;;;;16.63;8.82;;;1.30;97.20;;;;;;1707470;28;20202;-77
2021/12/21 07:58:09;;;;;;;14.07;9.90;;;1.30;97.20;;;;;;1707380;28;20212;-76
2021/12/21 07:59:00;;;;;;;14.07;9.38;;;1.30;97.20;;;;;;1707203;29;20213;-76
2021/12/21 07:59:53;;;;;;;10.93;9.82;;;1.30;97.20;;;;;;1707391;28;20203;-77
2021/12/21 08:00:44;;;;;;;11.07;9.70;;;1.30;97.20;;;;;;1707380;29;20202;-76
2021/12/21 08:01:36;;;;;;;13.53;10.27;;;1.30;97.20;;;;;;1707450;29;20208;-76
2021/12/21 08:02:28;;;;;;;13.35;9.98;;;1.30;97.20;;;;;;1707416;29;20457;-77
2021/12/21 08:03:20;;;;;;;10.88;9.52;;;1.40;97.20;;;;;;1707407;28;20281;-76
2021/12/21 08:04:12;;;;;;;12.18;9.88;;;1.40;97.20;;;;;;1707352;29;20218;-77
2021/12/21 08:05:07;;;;;;;12.40;9.50;;;1.40;97.20;;;;;;1707480;28;20237;-77
2021/12/21 08:05:59;;;;;;;11.40;9.13;;;1.40;97.20;;;;;;1707195;28;20270;-77
2021/12/21 08:06:51;;;;;;;14.55;9.55;;;1.40;97.20;;;;;;1707395;29;20202;-76
2021/12/21 08:07:49;;;;;;;11.05;9.15;;;1.40;97.20;;;;;;1707301;29;20324;-76
2021/12/21 08:08:43;;;;;;;9.73;8.55;;;1.40;97.20;;;;;;1706713;29;20203;-77
2021/12/21 08:09:39;;;;;;;10.90;9.05;;;1.40;97.20;;;;;;1707413;29;20203;-76
2021/12/21 08:10:42;;;;;;;12.68;8.40;;;1.40;97.20;;;;;;1707299;28;20670;-77
2021/12/21 08:12:40;;;;;;;11.00;9.80;;;1.50;97.20;;;;;;1698820;29;20534;-77
2021/12/21 08:13:31;;;;;;;12.43;10.63;;;1.50;97.20;;;;;;1707372;29;20206;-76
2021/12/21 08:14:23;;;;;;;12.15;10.40;;;1.40;97.20;;;;;;1707221;28;20210;-77
2021/12/21 08:15:14;;;;;;;11.90;9.93;;;1.50;97.20;;;;;;1707199;29;20246;-76
2021/12/21 08:16:06;;;;;;;16.07;10.50;;;1.40;97.20;;;;;;1707150;29;20209;-77
2021/12/21 08:16:57;;;;;;;16.10;10.60;;;1.50;97.20;;;;;;1707400;29;20985;-77
2021/12/21 08:17:49;;;;;;;11.40;10.13;;;1.50;97.20;;;;;;1707410;28;20617;-77
2021/12/21 08:18:41;;;;;;;11.68;10.48;;;1.50;97.20;;;;;;1707289;29;20207;-76
2021/12/21 08:19:32;;;;;;;11.80;10.43;;;1.50;97.20;;;;;;1707289;29;20234;-77
2021/12/21 08:20:26;;;;;;;13.73;10.90;;;1.50;97.20;;;;;;1707345;28;20209;-77
2021/12/21 08:21:18;;;;;;;11.23;10.02;;;1.50;97.20;;;;;;1707458;28;20853;-76
2021/12/21 08:22:10;;;;;;;13.82;9.50;;;1.60;97.20;;;;;;1707794;29;20203;-76
2021/12/21 08:23:02;;;;;;;11.35;10.07;;;1.60;97.20;;;;;;1707370;29;20214;-77
2021/12/21 08:23:54;;;;;;;10.85;9.43;;;1.70;97.20;;;;;;1707261;28;20199;-76
2021/12/21 08:24:45;;;;;;;13.48;10.57;;;1.70;97.20;;;;;;1707242;28;20226;-77
2021/12/21 08:25:38;;;;;;;10.03;9.03;;;1.70;97.20;;;;;;1707175;29;20203;-76
2021/12/21 08:26:29;;;;;;;12.00;9.52;;;1.80;97.20;;;;;;1707122;28;20870;-77
2021/12/21 08:27:20;;;;;;;9.70;8.70;;;1.80;97.20;;;;;;1707170;29;20564;-76
2021/12/21 08:28:12;;;;;;;12.73;9.17;;;1.80;97.20;;;;;;1707277;29;20224;-77
2021/12/21 08:29:03;;;;;;;10.90;8.10;;;1.90;97.20;;;;;;1707147;28;20209;-77
2021/12/21 08:29:54;;;;;;;11.47;8.77;;;1.90;97.20;;;;;;1707309;29;20203;-77
2021/12/21 08:30:45;;;;;;;10.45;8.88;;;1.90;97.20;;;;;;1707450;29;20207;-77
2021/12/21 08:31:37;;;;;;;10.67;8.53;;;2.00;97.20;;;;;;1707252;29;20194;-77
2021/12/21 08:32:28;;;;;;;13.13;7.47;;;2.00;97.20;;;;;;1707304;29;20230;-77
2021/12/21 08:33:19;;;;;;;9.33;8.00;;;2.10;97.20;;;;;;1707312;29;20198;-77
2021/12/21 08:34:11;;;;;;;8.93;6.80;;;2.10;97.20;;;;;;1707374;28;20210;-76
2021/12/21 08:35:03;;;;;;;7.50;6.80;;;2.20;97.20;;;;;;1707208;28;20219;-76
2021/12/21 08:35:56;;;;;;;8.82;7.03;;;2.20;97.20;;;;;;1706947;28;20205;-77
2021/12/21 08:36:47;;;;;;;8.43;6.40;;;2.20;97.20;;;;;;1707493;28;20214;-76
2021/12/21 08:37:38;;;;;;;8.07;7.10;;;2.30;97.20;;;;;;1707459;28;20202;-77
2021/12/21 08:38:31;;;;;;;8.75;6.53;;;2.30;97.20;;;;;;1707362;29;20350;-77
2021/12/21 08:39:24;;;;;;;10.65;7.30;;;2.40;97.20;;;;;;1707077;29;20203;-76
2021/12/21 08:40:15;;;;;;;11.15;7.32;;;2.40;97.20;;;;;;1707211;28;20576;-77
2021/12/21 08:41:07;;;;;;;9.65;6.50;;;2.50;97.20;;;;;;1707164;29;20222;-77
2021/12/21 08:41:59;;;;;;;7.80;7.00;;;2.50;97.20;;;;;;1707277;28;20202;-77
2021/12/21 08:42:52;;;;;;;12.10;6.22;;;2.60;97.20;;;;;;1707218;29;20202;-77
2021/12/21 08:43:42;;;;;;;7.95;6.47;;;2.70;97.20;;;;;;1707416;29;20689;-77
2021/12/21 08:44:34;;;;;;;10.80;6.00;;;2.70;97.20;;;;;;1707148;28;20560;-77
2021/12/21 08:45:25;;;;;;;10.00;6.05;;;2.80;97.20;;;;;;1707084;28;20211;-77
2021/12/21 08:46:17;;;;;;;8.53;6.80;;;2.80;97.20;;;;;;1707317;28;20199;-77
2021/12/21 08:47:07;;;;;;;8.15;6.10;;;2.80;97.20;;;;;;1707190;29;20888;-77
2021/12/21 08:48:00;;;;;;;7.23;6.37;;;2.80;97.20;;;;;;1707413;29;20571;-77
2021/12/21 08:48:51;;;;;;;7.47;5.70;;;2.90;97.20;;;;;;1706948;29;20460;-77
2021/12/21 08:49:42;;;;;;;5.63;5.13;;;2.90;97.20;;;;;;1707372;28;20712;-77
2021/12/21 08:50:35;;;;;;;8.60;6.57;;;3.00;97.20;;;;;;1707138;29;20245;-77
2021/12/21 08:51:28;;;;;;;6.97;6.07;;;3.00;97.20;;;;;;1707226;29;20229;-77
2021/12/21 08:52:19;;;;;;;8.25;5.70;;;3.10;97.20;;;;;;1707281;29;20697;-77
2021/12/21 08:53:12;;;;;;;8.17;5.73;;;3.10;97.20;;;;;;1707214;29;20566;-77
2021/12/21 08:54:03;;;;;;;8.13;6.05;;;3.20;97.20;;;;;;1707293;29;20203;-77
2021/12/21 08:54:55;;;;;;;11.03;6.57;;;3.20;97.20;;;;;;1707220;28;20713;-77
2021/12/21 08:55:46;;;;;;;7.57;5.60;;;3.20;97.20;;;;;;1706959;29;20198;-76
2021/12/21 08:56:37;;;;;;;10.10;6.60;;;3.20;97.20;;;;;;1707214;29;20203;-76
2021/12/21 08:57:30;;;;;;;7.82;5.85;;;3.20;97.20;;;;;;1707204;29;20458;-76
2021/12/21 08:58:21;;;;;;;14.15;7.15;;;3.30;97.20;;;;;;1707289;29;20202;-77
2021/12/21 08:59:15;;;;;;;8.05;6.55;;;3.30;97.20;;;;;;1707022;28;20616;-76
2021/12/21 09:00:07;;;;;;;12.48;6.32;;;3.30;97.20;;;;;;1707156;29;20214;-77
2021/12/21 09:00:59;;;;;;;8.15;6.05;;;3.30;97.20;;;;;;1707273;29;20237;-77
2021/12/21 09:01:52;;;;;;;8.82;6.18;;;3.30;97.20;;;;;;1707129;29;20226;-76
2021/12/21 09:02:43;;;;;;;9.10;6.75;;;3.30;97.20;;;;;;1707343;29;20253;-77
2021/12/21 09:03:34;;;;;;;8.20;6.30;;;3.40;97.20;;;;;;1707244;28;20582;-77
2021/12/21 09:04:27;;;;;;;9.60;6.30;;;3.50;97.20;;;;;;1707160;28;20260;-77
2021/12/21 09:05:20;;;;;;;8.80;6.18;;;3.50;97.20;;;;;;1706944;29;20450;-77
2021/12/21 09:06:12;;;;;;;9.38;6.30;;;3.50;97.20;;;;;;1707210;28;20241;-77
2021/12/21 09:07:04;;;;;;;6.78;5.65;;;3.60;97.20;;;;;;1707322;29;20253;-77
2021/12/21 09:07:56;;;;;;;8.43;5.90;;;3.70;97.20;;;;;;1707258;29;20290;-77
2021/12/21 09:08:47;;;;;;;7.45;6.05;;;3.70;97.20;;;;;;1707016;29;20234;-77
2021/12/21 09:09:39;;;;;;;10.57;6.50;;;3.80;97.20;;;;;;1707170;29;20205;-76
2021/12/21 09:10:31;;;;;;;9.63;6.38;;;3.80;97.20;;;;;;1707031;29;20237;-76
2021/12/21 09:11:22;;;;;;;6.50;5.72;;;3.90;97.20;;;;;;1707107;29;20226;-77
2021/12/21 09:12:14;;;;;;;8.57;5.30;;;3.90;97.20;;;;;;1707167;29;20202;-77
2021/12/21 09:13:05;;;;;;;7.63;6.57;;;4.00;97.20;;;;;;1707162;29;20454;-77
2021/12/21 09:13:57;;;;;;;6.57;5.93;;;4.00;97.20;;;;;;1707234;28;20558;-77
2021/12/21 09:14:48;;;;;;;7.70;5.60;;;3.90;97.20;;;;;;1707091;28;20269;-77
2021/12/21 09:15:40;;;;;;;8.47;5.70;;;3.90;97.20;;;;;;1706889;29;20202;-76
2021/12/21 09:16:30;;;;;;;9.40;6.15;;;4.00;97.20;;;;;;1707280;29;20646;-76
2021/12/21 09:17:24;;;;;;;7.87;5.87;;;4.00;97.20;;;;;;1707143;29;20199;-77
2021/12/21 09:18:16;;;;;;;9.70;5.88;;;4.10;97.20;;;;;;1707193;29;20494;-77
2021/12/21 09:19:07;;;;;;;8.98;6.10;;;4.10;97.20;;;;;;1706913;29;20250;-77
2021/12/21 09:19:58;;;;;;;6.50;5.57;;;4.10;97.20;;;;;;1707701;28;20369;-77
2021/12/21 09:20:49;;;;;;;10.15;5.80;;;4.10;97.20;;;;;;1708471;29;20207;-77
2021/12/21 09:21:41;;;;;;;7.33;6.10;;;4.20;97.20;;;;;;1708288;29;20236;-77
2021/12/21 09:22:33;;;;;;;8.63;5.72;;;4.30;97.20;;;;;;1708423;29;20202;-77
2021/12/21 09:23:27;;;;;;;14.43;6.72;;;4.40;97.20;;;;;;1708412;29;20237;-77
2021/12/21 09:24:19;;;;;;;6.30;5.65;;;4.50;97.20;;;;;;1708249;28;20206;-77
2021/12/21 09:25:10;;;;;;;6.00;5.50;;;4.60;97.20;;;;;;1708128;29;20222;-77
2021/12/21 09:26:02;;;;;;;8.25;6.97;;;4.70;97.20;;;;;;1708192;29;20230;-77
2021/12/21 09:26:54;;;;;;;7.32;6.53;;;4.80;97.20;;;;;;1708308;29;20210;-77
2021/12/21 09:27:46;;;;;;;7.80;5.90;;;4.80;97.20;;;;;;1708403;28;20792;-77
2021/12/21 09:28:37;;;;;;;7.45;5.88;;;4.90;97.20;;;;;;1708379;29;20567;-77
2021/12/21 09:29:28;;;;;;;7.18;6.10;;;5.00;97.20;;;;;;1708413;28;20236;-77
2021/12/21 09:30:22;;;;;;;7.90;5.50;;;5.10;97.20;;;;;;1708277;28;20203;-77
2021/12/21 09:31:14;;;;;;;6.95;5.13;;;5.20;97.20;;;;;;1708408;29;20221;-77
2021/12/21 09:32:06;;;;;;;9.10;5.70;;;5.20;97.20;;;;;;1708466;29;20214;-77
2021/12/21 09:32:58;;;;;;;7.18;5.88;;;5.20;97.20;;;;;;1708402;29;20225;-77
2021/12/21 09:33:49;;;;;;;6.70;5.90;;;5.30;97.20;;;;;;1708324;29;20242;-77
2021/12/21 09:34:41;;;;;;;9.03;5.60;;;5.30;97.20;;;;;;1708229;28;20230;-77
2021/12/21 09:35:32;;;;;;;11.25;6.15;;;5.40;97.20;;;;;;1708097;29;20454;-77
2021/12/21 09:36:26;;;;;;;6.67;5.53;;;5.40;97.20;;;;;;1708191;28;20281;-77
2021/12/21 09:37:20;;;;;;;7.28;5.85;;;5.50;97.20;;;;;;1708478;29;20990;-77
2021/12/21 09:38:13;;;;;;;8.73;6.10;;;5.60;97.20;;;;;;1708019;29;20199;-77
2021/12/21 09:39:04;;;;;;;7.30;6.50;;;5.60;97.20;;;;;;1708190;29;20202;-77
2021/12/21 09:39:57;;;;;;;6.60;5.80;;;5.70;97.20;;;;;;1708369;29;20207;-77
2021/12/21 09:40:49;;;;;;;7.03;5.82;;;5.70;97.20;;;;;;1708568;29;20222;-77
2021/12/21 09:41:40;;;;;;;7.15;5.78;;;5.80;97.20;;;;;;1708183;29;20684;-77
2021/12/21 09:42:33;;;;;;;8.32;6.10;;;5.80;97.20;;;;;;1708433;29;20230;-77
2021/12/21 09:43:24;;;;;;;9.73;6.28;;;5.80;97.20;;;;;;1708419;28;20213;-77
2021/12/21 09:44:16;;;;;;;6.80;5.73;;;5.90;97.20;;;;;;1708179;28;20277;-77
2021/12/21 09:45:08;;;;;;;12.23;6.97;;;6.00;97.20;;;;;;1708243;29;20257;-77
2021/12/21 09:45:59;;;;;;;6.15;5.57;;;6.00;97.20;;;;;;1707979;29;20253;-77
2021/12/21 09:46:50;;;;;;;9.18;6.25;;;6.10;97.20;;;;;;1708324;29;20229;-77
2021/12/21 09:47:43;;;;;;;7.33;5.70;;;6.10;97.20;;;;;;1708260;29;20203;-77
2021/12/21 09:48:33;;;;;;;7.93;5.70;;;6.10;97.20;;;;;;1708240;29;20505;-77
2021/12/21 09:49:25;;;;;;;7.70;6.00;;;6.20;97.20;;;;;;1708023;28;20203;-77
2021/12/21 09:50:18;;;;;;;7.55;5.15;;;6.20;97.20;;;;;;1708217;29;20470;-77
2021/12/21 09:51:10;;;;;;;7.05;5.05;;;6.20;97.20;;;;;;1708317;29;20194;-76
2021/12/21 09:52:01;;;;;;;9.55;5.88;;;6.30;97.20;;;;;;1708282;28;20233;-77
2021/12/21 09:52:53;;;;;;;6.53;5.93;;;6.30;97.20;;;;;;1708339;29;20206;-77
2021/12/21 09:53:48;;;;;;;9.45;5.97;;;6.30;97.20;;;;;;1708409;29;20497;-77
2021/12/21 09:54:40;;;;;;;6.10;5.43;;;6.30;97.20;;;;;;1708221;28;20225;-77
2021/12/21 09:55:31;;;;;;;9.27;6.05;;;6.40;97.20;;;;;;1707984;29;20217;-77
2021/12/21 09:56:23;;;;;;;6.70;6.05;;;6.40;97.20;;;;;;1708168;29;20706;-77
2021/12/21 09:57:17;;;;;;;8.35;5.75;;;6.50;97.20;;;;;;1708173;29;20253;-77
2021/12/21 09:58:09;;;;;;;6.97;5.15;;;6.50;97.20;;;;;;1708271;29;20245;-77
2021/12/21 09:59:01;;;;;;;6.65;5.95;;;6.50;97.20;;;;;;1708061;29;20210;-77
2021/12/21 09:59:52;;;;;;;10.65;5.72;;;6.60;97.20;;;;;;1708323;29;20207;-77
2021/12/21 10:00:45;;;;;;;6.78;5.85;;;6.70;97.20;;;;;;1708313;28;20217;-77
2021/12/21 10:01:36;;;;;;;6.88;5.97;;;6.70;97.20;;;;;;1708125;28;20674;-76
2021/12/21 10:02:28;;;;;;;9.83;5.40;;;6.70;97.20;;;;;;1708099;28;20558;-77
2021/12/21 10:03:19;;;;;;;6.15;5.55;;;6.80;97.20;;;;;;1708281;29;20203;-77
2021/12/21 10:04:11;;;;;;;6.40;5.53;;;6.90;97.20;;;;;;1708077;28;20209;-77
2021/12/21 10:05:06;;;;;;;6.55;5.40;;;7.00;97.20;;;;;;1708067;28;20222;-76
2021/12/21 10:06:05;;;;;;;7.90;5.65;;;7.10;97.20;;;;;;1707920;29;20206;-76
2021/12/21 10:06:57;;;;;;;6.63;5.53;;;7.20;97.20;;;;;;1707995;29;20232;-77
2021/12/21 10:07:59;;;;;;;7.07;5.57;;;7.30;97.20;;;;;;1707969;28;20199;-77
2021/12/21 10:08:51;;;;;;;7.80;6.10;;;7.40;97.20;;;;;;1707911;29;20250;-77
2021/12/21 10:09:44;;;;;;;8.00;5.68;;;7.50;97.20;;;;;;1708159;28;20261;-76
2021/12/21 10:10:37;;;;;;;8.38;5.45;;;7.60;97.20;;;;;;1708011;29;20621;-77
2021/12/21 10:11:29;;;;;;;9.32;5.85;;;7.70;97.20;;;;;;1708001;29;20692;-77
2021/12/21 10:12:28;;;;;;;5.90;5.18;;;7.80;97.20;;;;;;1708141;29;20236;-77
2021/12/21 10:13:22;;;;;;;8.55;6.18;;;7.90;97.20;;;;;;1708137;29;20223;-77
2021/12/21 10:14:13;;;;;;;5.97;5.15;;;8.00;97.20;;;;;;1708101;28;20688;-77
2021/12/21 10:15:08;;;;;;;9.60;5.68;;;8.10;97.20;;;;;;1708004;29;20210;-77
2021/12/21 10:16:02;;;;;;;8.35;5.22;;;8.20;97.20;;;;;;1707948;29;20206;-77
2021/12/21 10:17:01;;;;;;;7.55;5.47;;;8.30;97.20;;;;;;1708134;29;20211;-77
2021/12/21 10:17:57;;;;;;;10.30;6.07;;;8.50;97.20;;;;;;1708221;29;20575;-77
2021/12/21 10:18:48;;;;;;;7.78;5.43;;;8.60;97.20;;;;;;1707940;29;20215;-76
2021/12/21 10:19:46;;;;;;;7.70;5.63;;;8.70;97.20;;;;;;1708034;29;20198;-77
2021/12/21 10:20:41;;;;;;;7.22;5.63;;;8.80;97.20;;;;;;1707996;29;20207;-77
2021/12/21 10:21:32;;;;;;;8.77;5.43;;;8.90;97.20;;;;;;1708079;28;20289;-77
2021/12/21 10:22:24;;;;;;;8.30;5.47;;;9.00;97.20;;;;;;1707944;29;20226;-76
2021/12/21 10:23:17;;;;;;;5.93;4.90;;;9.10;97.20;;;;;;1707994;29;20481;-77
2021/12/21 10:24:10;;;;;;;7.07;5.85;;;9.20;97.20;;;;;;1708056;29;20677;-77
2021/12/21 10:25:01;;;;;;;4.80;4.40;;;9.30;97.20;;;;;;1707998;28;20234;-77
2021/12/21 10:25:56;;;;;;;5.45;4.95;;;9.40;97.20;;;;;;1707711;29;20274;-77
2021/12/21 10:26:47;;;;;;;6.88;5.15;;;9.50;97.20;;;;;;1707621;28;20245;-77
2021/12/21 10:27:44;;;;;;;5.67;4.63;;;9.60;97.20;;;;;;1708172;29;20191;-76
2021/12/21 10:28:39;;;;;;;7.50;4.63;;;9.70;97.20;;;;;;1708077;28;20218;-77
2021/12/21 10:29:40;;;;;;;4.68;4.20;;;9.80;97.20;;;;;;1707735;28;20214;-78
2021/12/21 10:30:32;;;;;;;11.05;5.07;;;9.90;97.20;;;;;;1708026;29;20658;-77
2021/12/21 10:31:25;;;;;;;6.82;5.18;;;10.00;97.20;;;;;;1707473;28;20206;-77
2021/12/21 10:32:18;;;;;;;6.70;4.45;;;10.10;97.20;;;;;;1707809;28;20273;-77
2021/12/21 10:33:10;;;;;;;7.20;5.28;;;10.30;97.20;;;;;;1708041;28;20211;-77
2021/12/21 10:34:03;;;;;;;7.38;4.97;;;10.40;97.20;;;;;;1708050;29;20289;-77
2021/12/21 10:34:57;;;;;;;6.15;5.20;;;10.50;97.20;;;;;;1707831;28;20281;-77
2021/12/21 10:35:49;;;;;;;6.45;4.18;;;10.60;97.20;;;;;;1707768;29;20233;-77
2021/12/21 10:36:42;;;;;;;9.40;5.25;;;10.70;97.20;;;;;;1708092;28;20203;-77
2021/12/21 10:37:35;;;;;;;6.10;5.25;;;10.80;97.20;;;;;;1708027;29;20234;-76
2021/12/21 10:38:29;;;;;;;7.40;5.35;;;10.90;97.20;;;;;;1708111;29;20241;-77
2021/12/21 10:39:23;;;;;;;7.88;5.82;;;11.10;97.20;;;;;;1707762;29;20209;-77
2021/12/21 10:40:22;;;;;;;6.60;5.30;;;11.10;97.20;;;;;;1707890;29;20203;-77
2021/12/21 10:41:16;;;;;;;9.10;5.82;;;11.20;97.20;;;;;;1708219;29;20250;-77
2021/12/21 10:42:08;;;;;;;8.65;5.45;;;11.40;97.20;;;;;;1707956;28;20206;-76
2021/12/21 10:43:05;;;;;;;7.85;6.22;;;11.50;97.20;;;;;;1708067;29;20638;-77
2021/12/21 10:44:03;;;;;;;6.57;5.53;;;11.60;97.20;;;;;;1708130;29;20249;-77
2021/12/21 10:45:02;;;;;;;6.40;5.20;;;11.70;97.20;;;;;;1707976;28;20789;-77
2021/12/21 10:45:54;;;;;;;6.53;5.60;;;11.90;97.20;;;;;;1707970;29;20206;-77
2021/12/21 10:46:47;;;;;;;6.55;4.85;;;11.90;97.20;;;;;;1707979;29;20209;-76
2021/12/21 10:47:39;;;;;;;7.15;5.20;;;12.10;97.20;;;;;;1707980;29;20642;-77
2021/12/21 10:48:35;;;;;;;7.75;5.78;;;12.20;97.20;;;;;;1707972;29;20226;-78
2021/12/21 10:49:27;;;;;;;6.03;5.43;;;12.20;97.20;;;;;;1707741;29;20295;-76
2021/12/21 10:50:19;;;;;;;7.20;5.70;;;12.30;97.20;;;;;;1707865;28;20693;-77
2021/12/21 10:51:15;;;;;;;6.13;5.13;;;12.50;97.20;;;;;;1707963;29;20631;-77
2021/12/21 10:52:09;;;;;;;6.07;5.00;;;12.50;97.20;;;;;;1708056;28;20206;-77
2021/12/21 10:53:02;;;;;;;5.45;4.95;;;12.60;97.20;;;;;;1707873;28;20203;-76
2021/12/21 10:53:53;;;;;;;9.40;5.60;;;12.70;97.20;;;;;;1708046;28;20207;-77
2021/12/21 10:54:48;;;;;;;6.47;5.47;;;12.80;97.20;;;;;;1707841;28;20310;-77